Nearby METAR Reports

 

NZWN - Wellington Intl, New Zealand
Distance from station: SSE 156km
Updated: Sun, 25-Feb-2018 2:00pm NZDT
Mostly cloudy
Mostly cloudy
 Wind from N
Wind: N 46 km/h, Gust: 70 km/h
Temperature: 21°C
Dew Point: 12°C
Humidity: 57%
Barometer: 1010 hPa
Clouds: Mostly cloudy
Visibility: 10 km
Cloud details: Few Clouds 1097 m
Mostly cloudy 1341 m
2018/02/25 01:00 NZWN 250100Z AUTO 35025G38KT 300V020 9999 FEW036/// BKN044/// 21/12 Q1010 NOSIG
NZAA - Auckland Intl Ar, New Zealand
Distance from station: N 334km
Updated: Sun, 25-Feb-2018 2:00pm NZDT
Few Clouds
Few Clouds
 Wind from SW
Wind: SW 13 km/h
Temperature: 23°C
Dew Point: 15°C
Humidity: 61%
Barometer: 1015 hPa
Clouds: Few Clouds
Visibility: 10 km
Cloud details: Few Clouds 1524 m
2018/02/25 01:00 NZAA 250100Z AUTO 22007KT 170V260 9999 FEW050/// 23/15 Q1015 NOSIG
 
NZWP - Whenuapai (nz-Af, New Zealand
Distance from station: N 359km
Updated: Thu, 14-Dec-2017 8:00pm NZDT
NOT Current
Partly cloudy
Partly cloudy
 Wind from NNE
Wind: NNE 11 km/h
Temperature: 21°C
Dew Point: 12°C
Humidity: 57%
Barometer: 1013 hPa
Clouds: Partly cloudy
Cloud details: Partly cloudy 1829 m
2017/12/14 07:00 NZWP 140700Z 02006KT 30KM SCT060 21/12 Q1013 NOSIG
NZCH - Christchurch Int, New Zealand
Distance from station: SSW 412km
Updated: Sun, 25-Feb-2018 2:00pm NZDT
Clear
Clear
 Wind from WNW
Wind: WNW 17 km/h
Temperature: 25°C
Dew Point: 9°C
Humidity: 36%
Barometer: 1000 hPa
Clouds: Clear
Visibility: 10 km
2018/02/25 01:00 NZCH 250100Z AUTO 29009KT 260V320 9999 NCD 25/09 Q1000 NOSIG

Metar display script from Saratoga-Weather.org